Time;durP1;ratioP1;P1;durP2;ratioP2;P2;SDS_P1;SDS_P2;PMS_P1;PMS_P2;Temp;Humidity;BMP_temperature;BMP_pressure;BME280_temperature;BME280_humidity;BME280_pressure;Samples;Min_cycle;Max_cycle;Signal;HPM_P1;HPM_P2
2023/06/04 00:00:14;;;;;;;;;;;;;;;20.75;76.13;101210.09;5017691;28;19973;-85
2023/06/04 00:02:40;;;;;;;;;;;;;;;20.72;75.13;101209.66;5001560;28;20134;-85
2023/06/04 00:05:08;;;;;;;;;;;;;;;20.72;75.50;101204.25;5016293;28;20385;-85
2023/06/04 00:07:37;;;;;;;;;;;;;;;20.68;76.78;101201.94;4993883;28;19935;-85
2023/06/04 00:10:07;;;;;;;;;;;;;;;20.47;77.09;101158.69;5012216;28;20028;-83
2023/06/04 00:12:34;;;;;;;;;;;;;;;20.64;76.63;101199.81;5013542;28;20474;-84
2023/06/04 00:15:01;;;;;;;;;;;;;;;20.61;77.29;101194.81;4997587;28;19974;-84
2023/06/04 00:17:27;;;;;;;;;;;;;;;20.59;76.09;101197.69;5011595;28;20154;-85
2023/06/04 00:19:55;;;;;;;;;;;;;;;20.59;77.53;101194.16;5020746;28;20398;-84
2023/06/04 00:22:25;;;;;;;;;;;;;;;20.54;77.21;101186.59;5004400;28;20071;-84
2023/06/04 00:24:52;;;;;;;;;;;;;;;20.54;76.46;101181.19;5005050;28;20015;-85
2023/06/04 00:27:19;;;;;;;;;;;;;;;20.48;74.73;101119.91;5002033;28;19928;-84
2023/06/04 00:29:46;;;;;;;;;;;;;;;20.79;74.63;101176.34;5025998;28;20370;-85
2023/06/04 00:32:12;;;;;;;;;;;;;;;20.77;74.74;101175.69;5038713;28;20133;-85
2023/06/04 00:34:40;;;;;;;;;;;;;;;20.76;75.36;101170.50;5016983;28;20371;-85
2023/06/04 00:37:08;;;;;;;;;;;;;;;20.71;76.21;101165.66;5023990;28;19924;-85
2023/06/04 00:39:38;;;;;;;;;;;;;;;20.70;74.76;101170.22;5035369;28;19932;-85
2023/06/04 00:42:06;;;;;;;;;;;;;;;20.75;74.45;101171.50;5004884;28;20093;-85
2023/06/04 00:44:33;;;;;;;;;;;;;;;20.51;74.13;101124.94;5011788;28;19963;-85
2023/06/04 00:47:00;;;;;;;;;;;;;;;20.72;74.07;101172.72;5013270;28;19935;-85
2023/06/04 00:49:26;;;;;;;;;;;;;;;20.66;75.73;101171.63;5044755;28;19924;-85
2023/06/04 00:51:54;;;;;;;;;;;;;;;20.61;75.59;101176.75;5019243;28;20225;-85
2023/06/04 00:54:21;;;;;;;;;;;;;;;20.57;76.74;101163.81;5009347;28;20345;-84
2023/06/04 00:56:49;;;;;;;;;;;;;;;20.51;76.23;101162.69;4996818;28;20161;-83
2023/06/04 00:59:17;;;;;;;;;;;;;;;20.48;76.57;101155.78;5004302;28;19929;-84
2023/06/04 01:01:56;;;;;;;;;;;;;;;20.45;77.40;101174.22;5004354;28;19928;-85
2023/06/04 01:04:35;;;;;;;;;;;;;;;20.34;77.27;101171.97;5014302;28;20193;-84
2023/06/04 01:07:09;;;;;;;;;;;;;;;20.25;77.55;101174.78;5013091;28;19979;-84
2023/06/04 01:09:44;;;;;;;;;;;;;;;20.19;77.66;101178.22;5000175;28;19931;-84
2023/06/04 01:12:13;;;;;;;;;;;;;;;20.13;77.58;101178.13;5011563;28;19924;-84
2023/06/04 01:14:41;;;;;;;;;;;;;;;20.04;77.84;101174.69;5002382;28;19925;-85
2023/06/04 01:17:09;;;;;;;;;;;;;;;19.99;78.29;101174.41;5022524;28;20340;-84
2023/06/04 01:19:51;;;;;;;;;;;;;;;19.93;78.51;101172.44;5020532;28;20192;-85
2023/06/04 01:22:31;;;;;;;;;;;;;;;19.90;78.79;101170.13;5011221;28;20148;-84
2023/06/04 01:25:02;;;;;;;;;;;;;;;19.86;79.15;101172.34;5028546;28;19924;-85
2023/06/04 01:27:35;;;;;;;;;;;;;;;19.83;79.58;101173.56;5027179;28;20088;-85
2023/06/04 01:30:03;;;;;;;;;;;;;;;19.85;79.52;101174.22;5016618;28;20018;-85
2023/06/04 01:32:33;;;;;;;;;;;;;;;19.98;78.45;101170.88;5012892;28;20538;-84
2023/06/04 01:35:09;;;;;;;;;;;;;;;20.09;77.34;101172.25;5016384;28;20033;-83
2023/06/04 01:37:48;;;;;;;;;;;;;;;20.13;76.71;101173.56;4968554;28;19943;-84
2023/06/04 01:40:23;;;;;;;;;;;;;;;19.80;76.85;101117.31;4976947;28;19952;-84
2023/06/04 01:42:50;;;;;;;;;;;;;;;20.08;78.39;101167.09;4995416;28;19932;-84
2023/06/04 01:45:17;;;;;;;;;;;;;;;20.03;78.40;101170.31;5020838;28;19960;-84
2023/06/04 01:47:43;;;;;;;;;;;;;;;20.00;78.25;101162.59;4996887;28;20416;-85
2023/06/04 01:50:13;;;;;;;;;;;;;;;19.93;78.19;101167.91;5007631;28;19925;-84
2023/06/04 01:52:40;;;;;;;;;;;;;;;19.93;78.15;101161.66;5010573;28;20386;-84
2023/06/04 01:55:11;;;;;;;;;;;;;;;19.83;78.58;101165.47;5015968;28;20480;-85
2023/06/04 01:57:39;;;;;;;;;;;;;;;19.79;78.91;101177.63;5012222;28;19924;-84
2023/06/04 02:00:08;;;;;;;;;;;;;;;19.70;79.11;101167.94;5000907;28;20023;-85
2023/06/04 02:02:41;;;;;;;;;;;;;;;19.67;79.61;101168.28;4999097;28;19977;-84
2023/06/04 02:05:25;;;;;;;;;;;;;;;19.65;79.66;101162.25;5021546;28;19931;-85
2023/06/04 02:07:52;;;;;;;;;;;;;;;19.64;79.26;101161.41;5043460;28;20240;-83
2023/06/04 02:10:19;;;;;;;;;;;;;;;19.67;79.83;101162.06;5023852;28;20274;-84
2023/06/04 02:12:59;;;;;;;;;;;;;;;19.63;80.13;101156.19;5027193;28;20416;-84
2023/06/04 02:15:26;;;;;;;;;;;;;;;19.63;79.55;101161.56;5029374;28;19935;-84
2023/06/04 02:17:55;;;;;;;;;;;;;;;19.63;79.78;101157.03;5042342;28;19928;-85
2023/06/04 02:20:25;;;;;;;;;;;;;;;19.26;79.41;101106.72;5046838;28;20016;-83
2023/06/04 02:22:55;;;;;;;;;;;;;;;19.30;79.57;101113.41;5023320;28;19931;-85
2023/06/04 02:25:23;;;;;;;;;;;;;;;19.53;79.31;101161.00;5024652;28;20337;-84
2023/06/04 02:27:51;;;;;;;;;;;;;;;19.51;79.55;101163.03;5021886;28;20538;-84
2023/06/04 02:30:18;;;;;;;;;;;;;;;19.53;79.39;101166.38;5016951;28;20441;-85
2023/06/04 02:32:45;;;;;;;;;;;;;;;19.50;79.32;101166.75;5016190;28;19928;-84
2023/06/04 02:35:22;;;;;;;;;;;;;;;19.45;79.54;101167.28;5038959;28;20196;-84
2023/06/04 02:37:49;;;;;;;;;;;;;;;19.41;79.46;101168.66;5024956;28;20237;-86
2023/06/04 02:40:16;;;;;;;;;;;;;;;19.42;79.76;101165.81;5024079;28;20261;-85
2023/06/04 02:42:43;;;;;;;;;;;;;;;19.43;79.42;101156.69;5013824;28;20464;-85
2023/06/04 02:45:15;;;;;;;;;;;;;;;19.08;79.50;101109.72;5020327;28;20090;-84
2023/06/04 02:47:49;;;;;;;;;;;;;;;19.37;79.69;101159.25;5035035;28;20170;-85
2023/06/04 02:50:16;;;;;;;;;;;;;;;19.37;79.79;101162.81;5018932;28;19979;-84
2023/06/04 02:52:43;;;;;;;;;;;;;;;19.35;79.89;101164.84;5014217;28;19924;-85
2023/06/04 02:55:11;;;;;;;;;;;;;;;19.36;79.55;101160.31;5014171;28;19925;-85
2023/06/04 02:57:40;;;;;;;;;;;;;;;19.38;79.36;101164.47;5040485;28;20457;-84
2023/06/04 03:00:13;;;;;;;;;;;;;;;19.37;79.53;101159.25;5015548;28;19924;-85
2023/06/04 03:02:51;;;;;;;;;;;;;;;19.35;79.76;101161.34;5021132;28;19978;-85
2023/06/04 03:05:27;;;;;;;;;;;;;;;19.35;79.73;101159.47;4996944;28;19928;-85
2023/06/04 03:08:07;;;;;;;;;;;;;;;19.33;79.89;101161.50;5009229;28;20355;-85
2023/06/04 03:10:35;;;;;;;;;;;;;;;19.29;80.07;101168.25;5000923;28;19930;-86
2023/06/04 03:13:01;;;;;;;;;;;;;;;19.32;80.23;101164.34;4988253;28;20080;-85
2023/06/04 03:15:31;;;;;;;;;;;;;;;19.29;81.04;101170.94;5010931;28;20055;-85
2023/06/04 03:17:59;;;;;;;;;;;;;;;19.31;80.93;101170.78;5020130;28;20213;-85
2023/06/04 03:20:36;;;;;;;;;;;;;;;19.28;80.22;101163.91;5026857;28;19924;-85
2023/06/04 03:23:08;;;;;;;;;;;;;;;18.98;79.20;101109.09;5019291;28;19925;-86
2023/06/04 03:25:34;;;;;;;;;;;;;;;19.36;79.25;101163.00;5008697;28;19983;-85
2023/06/04 03:28:03;;;;;;;;;;;;;;;19.34;79.79;101167.72;5002570;28;19924;-85
2023/06/04 03:30:33;;;;;;;;;;;;;;;19.36;80.36;101165.69;5005805;28;19931;-85
2023/06/04 03:33:18;;;;;;;;;;;;;;;19.33;79.21;101172.25;4982521;28;20359;-84
2023/06/04 03:35:52;;;;;;;;;;;;;;;19.42;79.38;101181.97;4986047;28;19925;-85
2023/06/04 03:38:25;;;;;;;;;;;;;;;19.40;79.16;101183.16;5025092;28;20390;-84
2023/06/04 03:41:07;;;;;;;;;;;;;;;19.46;79.49;101186.97;4986333;28;20354;-85
2023/06/04 03:43:52;;;;;;;;;;;;;;;19.48;78.88;101185.78;4994867;28;19924;-84
2023/06/04 03:46:33;;;;;;;;;;;;;;;19.19;78.89;101138.06;4984017;28;19933;-85
2023/06/04 03:49:04;;;;;;;;;;;;;;;19.50;78.58;101182.91;5015692;28;20020;-85
2023/06/04 03:51:36;;;;;;;;;;;;;;;19.44;78.76;101189.84;5017487;28;20091;-83
2023/06/04 03:54:06;;;;;;;;;;;;;;;19.35;79.61;101190.94;5020196;28;20230;-85
2023/06/04 03:56:35;;;;;;;;;;;;;;;19.21;79.83;101174.53;5027400;28;19925;-84
2023/06/04 03:59:04;;;;;;;;;;;;;;;19.16;79.87;101176.09;5023542;28;20354;-85
2023/06/04 04:01:38;;;;;;;;;;;;;;;19.12;79.82;101169.38;5021662;28;19939;-85
2023/06/04 04:04:06;;;;;;;;;;;;;;;19.14;80.35;101178.97;5010228;28;20751;-85
2023/06/04 04:06:40;;;;;;;;;;;;;;;19.18;80.35;101179.44;5025912;28;20124;-86
2023/06/04 04:09:21;;;;;;;;;;;;;;;19.19;80.31;101175.72;5005862;28;20026;-85
2023/06/04 04:11:55;;;;;;;;;;;;;;;19.18;80.17;101168.69;5010208;28;20442;-85
2023/06/04 04:14:35;;;;;;;;;;;;;;;19.17;79.58;101167.00;5011236;28;19924;-83
2023/06/04 04:17:04;;;;;;;;;;;;;;;19.31;79.19;101170.78;5009529;28;19924;-86
2023/06/04 04:19:31;;;;;;;;;;;;;;;19.29;79.25;101176.31;4987844;28;19924;-85
2023/06/04 04:21:58;;;;;;;;;;;;;;;19.32;79.72;101186.75;5019914;28;20014;-85
2023/06/04 04:24:26;;;;;;;;;;;;;;;19.34;79.14;101184.69;5013768;28;19928;-84
2023/06/04 04:26:53;;;;;;;;;;;;;;;19.30;79.10;101183.41;4993385;28;20099;-85
2023/06/04 04:29:24;;;;;;;;;;;;;;;19.25;78.77;101179.56;5005925;28;20180;-85
2023/06/04 04:31:52;;;;;;;;;;;;;;;19.22;79.39;101186.13;5002740;28;19929;-85
2023/06/04 04:34:21;;;;;;;;;;;;;;;19.24;78.71;101183.28;5029273;28;19928;-84
2023/06/04 04:36:52;;;;;;;;;;;;;;;19.26;78.78;101182.06;5030542;28;19925;-85
2023/06/04 04:39:25;;;;;;;;;;;;;;;19.27;78.43;101183.75;5018339;28;19989;-85
2023/06/04 04:41:56;;;;;;;;;;;;;;;19.34;77.87;101189.25;5018088;28;20291;-85
2023/06/04 04:44:26;;;;;;;;;;;;;;;19.37;78.09;101189.75;5028043;28;19936;-85
2023/06/04 04:46:56;;;;;;;;;;;;;;;19.46;77.29;101189.66;5009113;28;20157;-83
2023/06/04 04:49:24;;;;;;;;;;;;;;;19.52;76.15;101191.66;5003470;28;19924;-84
2023/06/04 04:51:51;;;;;;;;;;;;;;;19.59;75.17;101198.00;5019803;28;20077;-84
2023/06/04 04:54:18;;;;;;;;;;;;;;;19.64;73.98;101190.19;5017370;28;19928;-84
2023/06/04 04:56:45;;;;;;;;;;;;;;;19.70;73.95;101200.25;5025948;28;19982;-83
2023/06/04 04:59:12;;;;;;;;;;;;;;;19.77;73.14;101205.78;5004419;28;20173;-85
2023/06/04 05:01:46;;;;;;;;;;;;;;;19.81;73.41;101204.41;5006729;28;19968;-84
2023/06/04 05:04:31;;;;;;;;;;;;;;;19.84;73.41;101207.53;5020545;28;20596;-84
2023/06/04 05:06:58;;;;;;;;;;;;;;;19.90;73.32;101205.13;5014937;28;20168;-84
2023/06/04 05:09:25;;;;;;;;;;;;;;;19.96;73.27;101207.94;5015461;28;20171;-84
2023/06/04 05:11:52;;;;;;;;;;;;;;;20.08;72.83;101207.50;5028604;28;19924;-85
2023/06/04 05:14:19;;;;;;;;;;;;;;;20.08;72.64;101219.13;5028923;28;20297;-85
2023/06/04 05:20:15;;;;;;;;;;;;;;;20.14;71.51;101217.53;5044972;28;20305;-84
2023/06/04 05:22:43;;;;;;;;;;;;;;;20.14;70.52;101217.53;5040992;28;20252;-85
2023/06/04 05:25:10;;;;;;;;;;;;;;;20.10;70.41;101225.16;5033743;28;20377;-85
2023/06/04 05:27:37;;;;;;;;;;;;;;;20.13;71.01;101222.09;5033705;28;20274;-84
2023/06/04 05:30:06;;;;;;;;;;;;;;;20.12;71.25;101224.97;5032606;28;19956;-84
2023/06/04 05:32:36;;;;;;;;;;;;;;;19.83;70.50;101175.38;5029611;28;19928;-84
2023/06/04 05:35:04;;;;;;;;;;;;;;;20.20;70.51;101233.81;5023459;28;20127;-84
2023/06/04 05:37:34;;;;;;;;;;;;;;;20.32;69.55;101238.75;5046101;28;19959;-85
2023/06/04 05:40:03;;;;;;;;;;;;;;;20.39;69.75;101240.53;5022351;28;19939;-83
2023/06/04 05:42:29;;;;;;;;;;;;;;;20.50;69.44;101236.53;5007158;28;20155;-84
2023/06/04 05:45:00;;;;;;;;;;;;;;;20.51;69.59;101238.22;4986872;28;19924;-85
2023/06/04 05:47:31;;;;;;;;;;;;;;;20.59;69.36;101238.13;4986851;28;20148;-84
2023/06/04 05:50:05;;;;;;;;;;;;;;;20.28;68.60;101193.28;4999979;28;19935;-84
2023/06/04 05:52:42;;;;;;;;;;;;;;;20.61;69.34;101236.09;4985662;28;20178;-85
2023/06/04 05:55:12;;;;;;;;;;;;;;;20.64;68.83;101238.41;4994958;28;20460;-85
2023/06/04 05:57:41;;;;;;;;;;;;;;;20.67;68.78;101235.31;5062837;28;20510;-84
2023/06/04 06:00:11;;;;;;;;;;;;;;;20.74;68.74;101239.97;5031475;28;20289;-85
2023/06/04 06:02:38;;;;;;;;;;;;;;;20.76;69.04;101238.78;5014803;28;19931;-84
2023/06/04 06:05:08;;;;;;;;;;;;;;;20.73;70.12;101246.38;5016679;28;20220;-83
2023/06/04 06:07:43;;;;;;;;;;;;;;;20.79;69.11;101242.97;5000919;28;19924;-84
2023/06/04 06:10:17;;;;;;;;;;;;;;;20.77;69.58;101248.53;4977875;28;19932;-85
2023/06/04 06:12:53;;;;;;;;;;;;;;;20.82;69.41;101247.97;4982844;28;20160;-85
2023/06/04 06:15:27;;;;;;;;;;;;;;;20.92;68.89;101254.75;4990889;28;20368;-84
2023/06/04 06:17:53;;;;;;;;;;;;;;;20.97;67.85;101246.09;4974799;28;20215;-85
2023/06/04 06:20:23;;;;;;;;;;;;;;;20.98;67.45;101249.63;5043934;28;19928;-85
2023/06/04 06:22:51;;;;;;;;;;;;;;;21.00;67.48;101236.78;5024505;28;20101;-84
2023/06/04 06:25:19;;;;;;;;;;;;;;;20.93;68.92;101239.41;5031325;28;20374;-84
2023/06/04 06:27:48;;;;;;;;;;;;;;;20.68;68.04;101193.84;5014869;28;19936;-84
2023/06/04 06:30:16;;;;;;;;;;;;;;;21.14;67.67;101246.69;5033654;28;20346;-85
2023/06/04 06:32:45;;;;;;;;;;;;;;;20.93;67.43;101217.81;5015556;28;19924;-84
2023/06/04 06:35:12;;;;;;;;;;;;;;;21.05;68.59;101256.78;5017342;28;20234;-85
2023/06/04 06:37:41;;;;;;;;;;;;;;;21.02;68.79;101265.25;5038624;28;19925;-84
2023/06/04 06:40:12;;;;;;;;;;;;;;;21.20;67.77;101266.72;5039258;28;19931;-84
2023/06/04 06:42:38;;;;;;;;;;;;;;;21.26;66.27;101258.69;5019030;28;20008;-84
2023/06/04 06:45:08;;;;;;;;;;;;;;;21.23;66.38;101266.31;5040813;28;19931;-84
2023/06/04 06:47:36;;;;;;;;;;;;;;;21.24;66.11;101273.38;5026099;28;20109;-85
2023/06/04 06:50:06;;;;;;;;;;;;;;;20.86;66.16;101233.09;5027793;28;20326;-84
2023/06/04 06:52:34;;;;;;;;;;;;;;;21.21;65.20;101273.75;5023582;28;20025;-85
2023/06/04 06:55:04;;;;;;;;;;;;;;;21.26;64.48;101265.94;5019940;28;20324;-85
2023/06/04 06:57:30;;;;;;;;;;;;;;;21.33;64.85;101261.44;5023558;28;19971;-84
2023/06/04 06:59:59;;;;;;;;;;;;;;;21.28;65.66;101259.31;5017617;28;19958;-86
2023/06/04 07:02:26;;;;;;;;;;;;;;;21.24;66.26;101262.56;5013857;28;19932;-85
2023/06/04 07:04:52;;;;;;;;;;;;;;;21.35;66.33;101264.78;5012799;28;19925;-85
2023/06/04 07:07:19;;;;;;;;;;;;;;;21.41;65.69;101277.56;5004892;28;20371;-85
2023/06/04 07:09:46;;;;;;;;;;;;;;;21.57;65.60;101289.16;5018092;28;19967;-84
2023/06/04 07:12:12;;;;;;;;;;;;;;;21.57;65.61;101289.16;5005634;28;20047;-85
2023/06/04 07:14:41;;;;;;;;;;;;;;;21.54;66.51;101295.78;4983295;28;20382;-85
2023/06/04 07:17:08;;;;;;;;;;;;;;;21.63;67.10;101293.81;4983775;28;19925;-85
2023/06/04 07:19:36;;;;;;;;;;;;;;;21.66;67.71;101283.44;5012347;28;20119;-85
2023/06/04 07:22:03;;;;;;;;;;;;;;;21.71;66.84;101280.97;5015950;28;20190;-84
2023/06/04 07:24:30;;;;;;;;;;;;;;;21.86;66.13;101277.38;5020666;28;19924;-84
2023/06/04 07:26:59;;;;;;;;;;;;;;;21.97;64.89;101285.78;5021146;28;19939;-85
2023/06/04 07:29:28;;;;;;;;;;;;;;;21.91;65.68;101285.72;5001489;28;19940;-84
2023/06/04 07:31:58;;;;;;;;;;;;;;;21.81;66.23;101293.34;5006409;28;19936;-85
2023/06/04 07:34:30;;;;;;;;;;;;;;;21.85;67.07;101290.06;4995947;28;19929;-84
2023/06/04 07:37:02;;;;;;;;;;;;;;;21.90;66.58;101295.72;5013073;28;20287;-85
2023/06/04 07:39:28;;;;;;;;;;;;;;;21.98;65.38;101290.16;4979520;28;19936;-84
2023/06/04 07:41:56;;;;;;;;;;;;;;;22.08;64.55;101297.09;4980228;28;19964;-85
2023/06/04 07:44:23;;;;;;;;;;;;;;;22.04;65.11;101291.25;4984529;28;20394;-84
2023/06/04 07:46:49;;;;;;;;;;;;;;;22.05;64.88;101297.50;4993960;28;19925;-84
2023/06/04 07:49:20;;;;;;;;;;;;;;;22.02;65.07;101300.59;4987751;28;19932;-84
2023/06/04 07:51:49;;;;;;;;;;;;;;;22.06;65.37;101299.16;5002216;28;19929;-84
2023/06/04 07:54:16;;;;;;;;;;;;;;;22.08;65.38;101303.34;5003161;28;20225;-84
2023/06/04 07:56:43;;;;;;;;;;;;;;;22.21;63.96;101302.66;4992864;28;19931;-85
2023/06/04 07:59:10;;;;;;;;;;;;;;;22.22;63.33;101304.31;4990735;28;19933;-84
2023/06/04 08:01:37;;;;;;;;;;;;;;;22.26;64.95;101299.34;5010166;28;20378;-85
2023/06/04 08:04:03;;;;;;;;;;;;;;;22.27;64.45;101307.28;5021299;28;20012;-84
2023/06/04 08:06:31;;;;;;;;;;;;;;;22.30;64.32;101312.28;5020802;28;20310;-86
2023/06/04 08:08:57;;;;;;;;;;;;;;;22.42;63.26;101309.03;5018648;28;20011;-85
2023/06/04 08:11:25;;;;;;;;;;;;;;;22.49;62.43;101307.22;5016457;28;19934;-85
2023/06/04 08:13:52;;;;;;;;;;;;;;;22.55;62.10;101315.41;5041842;28;20413;-85
2023/06/04 08:16:21;;;;;;;;;;;;;;;22.27;61.70;101266.72;5023483;28;19925;-85
2023/06/04 08:18:48;;;;;;;;;;;;;;;22.57;61.54;101307.91;5034237;28;19925;-85
2023/06/04 08:21:28;;;;;;;;;;;;;;;22.58;62.09;101308.75;5036370;28;20217;-86
2023/06/04 08:24:00;;;;;;;;;;;;;;;22.68;62.51;101309.22;5038552;28;19928;-86
2023/06/04 08:26:30;;;;;;;;;;;;;;;22.75;62.38;101306.56;5054705;28;20263;-86
2023/06/04 08:29:03;;;;;;;;;;;;;;;22.77;61.92;101302.63;5036007;28;19925;-85
2023/06/04 08:31:31;;;;;;;;;;;;;;;22.90;62.38;101291.00;5053077;28;19924;-85
2023/06/04 08:34:00;;;;;;;;;;;;;;;23.03;62.05;101293.81;5023902;28;19935;-84
2023/06/04 08:36:32;;;;;;;;;;;;;;;23.15;61.67;101288.63;5038213;28;19989;-85
2023/06/04 08:39:01;;;;;;;;;;;;;;;23.27;61.28;101291.59;5043935;28;19932;-84
2023/06/04 08:41:44;;;;;;;;;;;;;;;23.43;61.40;101295.81;5061334;28;20378;-83
2023/06/04 08:44:11;;;;;;;;;;;;;;;23.37;59.95;101280.38;5033298;28;19948;-84
2023/06/04 08:46:43;;;;;;;;;;;;;;;23.50;60.91;101285.84;5040382;28;19924;-81
2023/06/04 08:49:15;;;;;;;;;;;;;;;23.55;59.81;101283.34;5042955;28;19928;-82
2023/06/04 08:51:49;;;;;;;;;;;;;;;23.61;59.35;101277.09;5053948;28;19925;-85
2023/06/04 08:54:18;;;;;;;;;;;;;;;23.62;59.59;101277.94;5045121;28;20147;-84
2023/06/04 08:56:49;;;;;;;;;;;;;;;23.68;60.30;101275.22;5063138;28;19924;-83
2023/06/04 08:59:19;;;;;;;;;;;;;;;23.78;59.77;101282.97;5061304;28;20392;-84
2023/06/04 09:01:52;;;;;;;;;;;;;;;23.88;59.12;101279.84;5045897;28;19951;-85
2023/06/04 09:04:19;;;;;;;;;;;;;;;23.87;58.81;101273.59;5040685;28;19951;-85
2023/06/04 09:06:46;;;;;;;;;;;;;;;23.91;58.77;101265.91;5045557;28;20050;-85
2023/06/04 09:09:15;;;;;;;;;;;;;;;24.02;58.80;101267.97;5037176;28;19925;-84
2023/06/04 09:11:46;;;;;;;;;;;;;;;24.04;59.58;101284.03;5045025;28;20187;-84
2023/06/04 09:14:16;;;;;;;;;;;;;;;24.06;58.83;101293.63;5046381;28;20401;-85
2023/06/04 09:16:50;;;;;;;;;;;;;;;24.09;58.99;101287.78;5040567;28;19925;-85
2023/06/04 09:19:17;;;;;;;;;;;;;;;24.09;58.82;101297.81;5035593;28;19929;-85
2023/06/04 09:21:51;;;;;;;;;;;;;;;24.07;59.51;101298.00;5044432;28;19924;-85
2023/06/04 09:24:21;;;;;;;;;;;;;;;24.14;60.13;101297.19;5043214;28;20285;-85
2023/06/04 09:26:49;;;;;;;;;;;;;;;24.23;59.18;101301.34;5054573;28;19974;-86
2023/06/04 09:29:17;;;;;;;;;;;;;;;24.30;58.97;101296.75;5044826;28;19932;-85
2023/06/04 09:31:57;;;;;;;;;;;;;;;24.35;58.13;101298.84;5042903;28;20512;-85
2023/06/04 09:34:28;;;;;;;;;;;;;;;24.44;58.56;101297.56;5062871;28;20336;-86
2023/06/04 09:36:58;;;;;;;;;;;;;;;24.51;58.96;101293.81;5035817;28;20182;-85
2023/06/04 09:39:29;;;;;;;;;;;;;;;24.65;57.62;101296.50;5027254;28;20023;-85
2023/06/04 09:42:04;;;;;;;;;;;;;;;24.67;56.72;101283.56;4967757;28;20503;-85
2023/06/04 09:44:47;;;;;;;;;;;;;;;24.70;57.79;101277.69;4973036;28;20277;-83
2023/06/04 09:47:23;;;;;;;;;;;;;;;24.43;57.84;101237.03;4980406;28;20305;-85
2023/06/04 09:49:53;;;;;;;;;;;;;;;24.41;57.25;101239.13;5013701;28;19932;-86
2023/06/04 09:52:21;;;;;;;;;;;;;;;24.88;57.82;101293.28;4997952;28;19971;-85
2023/06/04 09:54:47;;;;;;;;;;;;;;;25.03;57.45;101290.34;5018057;28;20018;-87
2023/06/04 09:57:18;;;;;;;;;;;;;;;25.14;56.91;101282.31;5008445;28;20301;-87
2023/06/04 09:59:49;;;;;;;;;;;;;;;25.09;56.71;101290.28;4975957;28;20095;-85
2023/06/04 10:02:26;;;;;;;;;;;;;;;25.21;56.37;101292.38;4980014;28;20135;-86
2023/06/04 10:05:02;;;;;;;;;;;;;;;25.10;56.73;101291.13;4954493;28;19928;-86
2023/06/04 10:07:39;;;;;;;;;;;;;;;25.14;57.54;101295.06;4991365;28;19928;-84
2023/06/04 10:10:15;;;;;;;;;;;;;;;25.10;56.36;101296.56;4968286;28;19932;-84
2023/06/04 10:12:47;;;;;;;;;;;;;;;25.22;56.81;101284.00;4960558;28;20161;-86
2023/06/04 10:15:17;;;;;;;;;;;;;;;25.31;55.86;101288.13;4984608;28;20319;-85
2023/06/04 10:17:47;;;;;;;;;;;;;;;25.46;55.99;101287.00;4999850;28;19939;-85
2023/06/04 10:20:22;;;;;;;;;;;;;;;25.66;55.42;101276.84;5023197;28;19934;-86
2023/06/04 10:22:49;;;;;;;;;;;;;;;25.71;54.63;101277.00;5020168;28;19924;-85
2023/06/04 10:25:17;;;;;;;;;;;;;;;25.72;55.22;101278.66;5022395;28;20217;-85
2023/06/04 10:27:47;;;;;;;;;;;;;;;25.79;54.41;101274.00;5000305;28;19924;-85
2023/06/04 10:30:14;;;;;;;;;;;;;;;25.99;54.99;101273.03;5005697;28;20023;-86
2023/06/04 10:32:44;;;;;;;;;;;;;;;26.05;54.41;101277.59;5014546;28;19971;-86
2023/06/04 10:35:12;;;;;;;;;;;;;;;26.05;54.47;101274.06;5019686;28;19946;-85
2023/06/04 10:37:42;;;;;;;;;;;;;;;25.95;54.75;101277.28;5045877;28;20322;-85
2023/06/04 10:40:10;;;;;;;;;;;;;;;25.93;55.47;101277.50;5041591;28;19982;-85
2023/06/04 10:42:38;;;;;;;;;;;;;;;25.82;55.94;101271.91;5034997;28;20405;-85
2023/06/04 10:45:09;;;;;;;;;;;;;;;25.93;54.85;101273.94;5014359;28;20019;-85
2023/06/04 10:47:40;;;;;;;;;;;;;;;25.82;54.56;101267.28;4990859;28;19925;-85
2023/06/04 10:50:16;;;;;;;;;;;;;;;26.10;55.02;101263.34;4989363;28;19935;-85
2023/06/04 10:52:52;;;;;;;;;;;;;;;26.21;55.13;101271.59;4998307;28;20372;-85
2023/06/04 10:55:19;;;;;;;;;;;;;;;26.12;55.46;101272.94;5001448;28;19932;-86
2023/06/04 10:57:54;;;;;;;;;;;;;;;26.09;55.96;101267.09;5020913;28;20011;-84
2023/06/04 11:00:33;;;;;;;;;;;;;;;25.67;55.88;101206.97;4997557;28;19934;-86
2023/06/04 11:03:00;;;;;;;;;;;;;;;26.15;55.37;101255.34;5008318;28;20003;-85
2023/06/04 11:05:41;;;;;;;;;;;;;;;26.09;56.46;101262.47;4994383;28;20440;-86
2023/06/04 11:08:17;;;;;;;;;;;;;;;26.19;56.50;101271.00;5008672;28;20356;-85
2023/06/04 11:10:45;;;;;;;;;;;;;;;26.22;56.27;101267.81;5004921;28;19931;-85
2023/06/04 11:13:16;;;;;;;;;;;;;;;26.01;56.41;101211.09;5008135;28;19994;-85
2023/06/04 11:15:44;;;;;;;;;;;;;;;26.70;55.11;101270.88;5016227;28;20649;-85
2023/06/04 11:18:22;;;;;;;;;;;;;;;26.81;55.71;101264.69;5004831;28;20366;-85
2023/06/04 11:21:02;;;;;;;;;;;;;;;26.95;54.54;101258.03;4997340;28;20496;-85
2023/06/04 11:23:31;;;;;;;;;;;;;;;27.05;53.85;101266.47;4973704;28;20063;-85
2023/06/04 11:26:03;;;;;;;;;;;;;;;27.16;53.01;101250.41;5017270;28;20246;-86
2023/06/04 11:28:30;;;;;;;;;;;;;;;27.25;53.39;101254.50;5015014;28;19924;-85
2023/06/04 11:31:02;;;;;;;;;;;;;;;27.40;52.62;101249.44;5024919;28;19924;-85
2023/06/04 11:33:42;;;;;;;;;;;;;;;27.75;51.70;101245.97;5011724;28;19935;-85
2023/06/04 11:36:10;;;;;;;;;;;;;;;27.90;50.92;101240.09;5034207;28;20174;-85
2023/06/04 11:38:37;;;;;;;;;;;;;;;28.05;51.25;101232.25;5022111;28;19929;-85
2023/06/04 11:41:05;;;;;;;;;;;;;;;28.12;49.72;101232.16;5002783;28;19924;-85
2023/06/04 11:43:38;;;;;;;;;;;;;;;28.02;50.55;101196.44;5041230;28;19924;-85
2023/06/04 11:46:08;;;;;;;;;;;;;;;28.38;50.25;101230.00;5018061;28;19935;-84
2023/06/04 11:48:37;;;;;;;;;;;;;;;28.50;49.78;101225.38;5026262;28;19989;-84
2023/06/04 11:51:09;;;;;;;;;;;;;;;28.69;50.04;101226.88;4976742;28;19932;-85
2023/06/04 11:53:43;;;;;;;;;;;;;;;28.80;49.45;101216.16;5008004;28;19924;-85
2023/06/04 11:56:12;;;;;;;;;;;;;;;28.90;48.78;101206.22;4984034;28;19929;-85
2023/06/04 11:58:40;;;;;;;;;;;;;;;28.99;47.90;101209.41;5010107;28;19925;-83
2023/06/04 12:01:08;;;;;;;;;;;;;;;28.96;47.92;101166.19;5015385;28;20418;-82
2023/06/04 12:03:39;;;;;;;;;;;;;;;29.36;48.87;101209.00;5017193;28;19947;-83
2023/06/04 12:06:20;;;;;;;;;;;;;;;29.54;46.99;101200.59;5000087;28;19972;-84
2023/06/04 12:08:51;;;;;;;;;;;;;;;29.76;46.18;101197.09;5002808;28;20321;-83
2023/06/04 12:11:31;;;;;;;;;;;;;;;29.83;45.38;101197.75;4994320;28;20475;-83
2023/06/04 12:13:59;;;;;;;;;;;;;;;29.79;45.32;101193.88;4991505;28;20245;-84
2023/06/04 12:16:28;;;;;;;;;;;;;;;29.90;45.03;101190.19;5006811;28;19951;-85
2023/06/04 12:19:06;;;;;;;;;;;;;;;30.14;44.60;101190.00;5005978;28;19987;-85
2023/06/04 12:21:35;;;;;;;;;;;;;;;30.27;45.57;101192.41;4990917;28;19932;-84
2023/06/04 12:24:08;;;;;;;;;;;;;;;30.39;43.59;101184.91;4990683;28;20203;-84
2023/06/04 12:26:45;;;;;;;;;;;;;;;30.54;43.95;101186.19;4962999;28;19929;-85
2023/06/04 12:29:15;;;;;;;;;;;;;;;30.60;44.35;101185.13;4982205;28;20398;-85
2023/06/04 12:31:47;;;;;;;;;;;;;;;30.73;43.27;101183.91;5015562;28;19925;-83
2023/06/04 12:34:17;;;;;;;;;;;;;;;30.67;43.91;101180.28;4989352;28;19932;-84
2023/06/04 12:36:56;;;;;;;;;;;;;;;30.80;43.37;101179.91;4962951;28;20429;-83
2023/06/04 12:39:38;;;;;;;;;;;;;;;30.85;43.59;101174.50;4994281;28;20580;-84
2023/06/04 12:42:06;;;;;;;;;;;;;;;30.93;43.34;101183.34;4981981;28;20015;-85
2023/06/04 12:44:33;;;;;;;;;;;;;;;31.01;43.79;101172.72;5001218;28;19929;-85
2023/06/04 12:47:05;;;;;;;;;;;;;;;31.16;42.37;101172.03;4991736;28;20366;-84
2023/06/04 12:49:32;;;;;;;;;;;;;;;31.21;41.85;101165.78;4993748;28;20224;-84
2023/06/04 12:51:58;;;;;;;;;;;;;;;31.20;41.97;101175.94;4994610;28;19936;-85
2023/06/04 12:54:27;;;;;;;;;;;;;;;30.81;42.12;101121.25;4981832;28;20368;-85